Time;durP1;ratioP1;P1;durP2;ratioP2;P2;SDS_P1;SDS_P2;PMS_P1;PMS_P2;Temp;Humidity;BMP_temperature;BMP_pressure;BME280_temperature;BME280_humidity;BME280_pressure;Samples;Min_cycle;Max_cycle;Signal;HPM_P1;HPM_P2
2023/09/09 00:00:07;;;;;;;;;;;26.50;1.00;;;;;;4976045;28;19937;-62
2023/09/09 00:02:37;;;;;;;;;;;26.40;1.00;;;;;;4975824;28;19926;-62
2023/09/09 00:05:04;;;;;;;;;;;26.40;1.00;;;;;;4973246;28;19932;-62
2023/09/09 00:07:31;;;;;;;;;;;26.40;1.00;;;;;;4946338;28;19989;-62
2023/09/09 00:09:58;;;;;;;;;;;26.40;1.00;;;;;;4944605;29;19930;-63
2023/09/09 00:12:24;;;;;;;;;;;26.40;1.00;;;;;;4942853;29;19927;-63
2023/09/09 00:14:51;;;;;;;;;;;26.40;1.00;;;;;;4942443;29;19941;-63
2023/09/09 00:17:18;;;;;;;;;;;26.40;1.00;;;;;;4935556;29;19934;-63
2023/09/09 00:19:45;;;;;;;;;;;26.40;1.00;;;;;;4939989;29;19933;-62
2023/09/09 00:22:11;;;;;;;;;;;26.40;1.00;;;;;;4943713;29;19926;-63
2023/09/09 00:24:38;;;;;;;;;;;26.40;1.00;;;;;;4937388;29;19931;-62
2023/09/09 00:27:05;;;;;;;;;;;26.40;1.00;;;;;;4943318;29;20268;-62
2023/09/09 00:29:33;;;;;;;;;;;26.40;1.00;;;;;;4918509;29;20390;-61
2023/09/09 00:32:00;;;;;;;;;;;26.30;1.00;;;;;;4923138;29;19927;-61
2023/09/09 00:34:27;;;;;;;;;;;26.30;1.00;;;;;;4941346;29;20011;-61
2023/09/09 00:36:54;;;;;;;;;;;26.30;1.00;;;;;;4930446;29;19960;-61
2023/09/09 00:39:20;;;;;;;;;;;26.30;1.00;;;;;;4928617;29;20014;-60
2023/09/09 00:41:47;;;;;;;;;;;26.30;1.00;;;;;;4925419;29;19927;-61
2023/09/09 00:44:14;;;;;;;;;;;26.30;1.00;;;;;;4927931;29;20301;-61
2023/09/09 00:46:41;;;;;;;;;;;26.30;1.00;;;;;;4922648;29;20017;-61
2023/09/09 00:49:08;;;;;;;;;;;26.30;1.00;;;;;;4939248;29;19926;-62
2023/09/09 00:51:37;;;;;;;;;;;26.30;1.00;;;;;;4921510;29;19926;-62
2023/09/09 00:54:04;;;;;;;;;;;26.30;1.00;;;;;;4925827;29;19970;-62
2023/09/09 00:56:33;;;;;;;;;;;26.30;1.00;;;;;;4932345;29;19954;-62
2023/09/09 00:58:59;;;;;;;;;;;26.30;1.00;;;;;;4936274;28;19946;-61
2023/09/09 01:01:27;;;;;;;;;;;26.20;1.00;;;;;;4923872;29;19933;-62
2023/09/09 01:03:54;;;;;;;;;;;26.20;1.00;;;;;;4926443;29;20290;-59
2023/09/09 01:06:22;;;;;;;;;;;26.20;1.00;;;;;;4947139;29;19933;-62
2023/09/09 01:08:49;;;;;;;;;;;26.20;1.00;;;;;;4946142;29;19990;-62
2023/09/09 01:11:16;;;;;;;;;;;26.20;1.00;;;;;;4928581;29;19927;-62
2023/09/09 01:13:42;;;;;;;;;;;26.30;1.00;;;;;;4941710;29;20025;-62
2023/09/09 01:16:10;;;;;;;;;;;26.20;1.00;;;;;;4926548;29;20026;-62
2023/09/09 01:18:37;;;;;;;;;;;26.20;1.00;;;;;;4923895;29;19926;-61
2023/09/09 01:21:04;;;;;;;;;;;26.20;1.00;;;;;;4952200;29;19926;-62
2023/09/09 01:23:30;;;;;;;;;;;26.20;1.00;;;;;;4930183;29;19933;-61
2023/09/09 01:25:57;;;;;;;;;;;26.20;1.00;;;;;;4930135;28;19996;-61
2023/09/09 01:28:24;;;;;;;;;;;26.20;1.00;;;;;;4954849;29;20309;-61
2023/09/09 01:30:51;;;;;;;;;;;26.20;1.00;;;;;;4948989;29;20287;-61
2023/09/09 01:33:17;;;;;;;;;;;26.20;1.00;;;;;;4939890;29;19927;-62
2023/09/09 01:35:45;;;;;;;;;;;26.20;1.00;;;;;;4927441;29;19931;-61
2023/09/09 01:38:12;;;;;;;;;;;26.20;1.00;;;;;;4927898;29;19997;-59
2023/09/09 01:40:39;;;;;;;;;;;26.20;1.00;;;;;;4941024;29;19927;-61
2023/09/09 01:43:06;;;;;;;;;;;26.20;1.00;;;;;;4926272;29;20372;-59
2023/09/09 01:45:33;;;;;;;;;;;26.20;1.00;;;;;;4922705;29;19927;-60
2023/09/09 01:48:00;;;;;;;;;;;26.20;1.00;;;;;;4931903;29;19927;-61
2023/09/09 01:50:28;;;;;;;;;;;26.20;1.00;;;;;;4954916;29;20357;-62
2023/09/09 01:52:55;;;;;;;;;;;26.20;1.00;;;;;;4946167;29;20374;-62
2023/09/09 01:55:22;;;;;;;;;;;26.20;1.00;;;;;;4928888;29;19927;-60
2023/09/09 01:57:49;;;;;;;;;;;26.10;1.00;;;;;;4933026;29;19927;-61
2023/09/09 02:00:15;;;;;;;;;;;26.10;1.00;;;;;;4934336;29;19936;-61
2023/09/09 02:02:42;;;;;;;;;;;26.10;1.00;;;;;;4939246;29;19926;-61
2023/09/09 02:05:10;;;;;;;;;;;26.10;1.00;;;;;;4954226;29;19942;-61
2023/09/09 02:07:36;;;;;;;;;;;26.10;1.00;;;;;;4927594;29;19931;-60
2023/09/09 02:10:03;;;;;;;;;;;26.10;1.00;;;;;;4923488;29;20302;-61
2023/09/09 02:12:30;;;;;;;;;;;26.10;1.00;;;;;;4943456;29;19934;-60
2023/09/09 02:14:57;;;;;;;;;;;26.10;1.00;;;;;;4929552;29;19948;-61
2023/09/09 02:17:23;;;;;;;;;;;26.10;1.00;;;;;;4947503;28;20345;-61
2023/09/09 02:19:55;;;;;;;;;;;26.10;1.00;;;;;;4944245;29;19934;-59
2023/09/09 02:22:22;;;;;;;;;;;26.10;1.00;;;;;;4936512;29;19937;-61
2023/09/09 02:24:53;;;;;;;;;;;26.10;1.00;;;;;;4954560;29;19981;-61
2023/09/09 02:27:20;;;;;;;;;;;26.10;1.00;;;;;;4932176;29;19962;-61
2023/09/09 02:29:47;;;;;;;;;;;26.10;1.00;;;;;;4947075;29;19988;-61
2023/09/09 02:32:13;;;;;;;;;;;26.00;1.00;;;;;;4953496;29;20017;-61
2023/09/09 02:34:40;;;;;;;;;;;26.00;1.00;;;;;;4928801;29;19926;-61
2023/09/09 02:37:12;;;;;;;;;;;26.00;1.00;;;;;;4923359;29;20018;-59
2023/09/09 02:39:38;;;;;;;;;;;26.00;1.00;;;;;;4925085;29;19933;-61
2023/09/09 02:42:05;;;;;;;;;;;26.00;1.00;;;;;;4938330;29;19938;-61
2023/09/09 02:44:32;;;;;;;;;;;26.00;1.00;;;;;;4927774;29;20025;-61
2023/09/09 02:46:59;;;;;;;;;;;26.00;1.00;;;;;;4947318;29;19926;-61
2023/09/09 02:49:25;;;;;;;;;;;26.00;1.00;;;;;;4934915;29;19930;-60
2023/09/09 02:51:52;;;;;;;;;;;26.00;1.00;;;;;;4925137;29;19933;-61
2023/09/09 02:54:19;;;;;;;;;;;26.00;1.00;;;;;;4920343;29;19927;-60
2023/09/09 02:56:46;;;;;;;;;;;26.00;1.00;;;;;;4922100;29;19927;-61
2023/09/09 02:59:13;;;;;;;;;;;26.00;1.00;;;;;;4918595;29;20293;-61
2023/09/09 03:01:40;;;;;;;;;;;26.00;1.00;;;;;;4931175;29;19977;-61
2023/09/09 03:04:07;;;;;;;;;;;26.00;1.00;;;;;;4937843;29;19933;-61
2023/09/09 03:06:33;;;;;;;;;;;25.90;1.00;;;;;;4947867;28;19973;-61
2023/09/09 03:09:00;;;;;;;;;;;25.90;1.00;;;;;;4949486;29;20437;-61
2023/09/09 03:11:28;;;;;;;;;;;25.90;1.00;;;;;;4951134;29;19982;-60
2023/09/09 03:13:54;;;;;;;;;;;25.90;1.00;;;;;;4943673;29;19926;-61
2023/09/09 03:16:21;;;;;;;;;;;25.90;1.00;;;;;;4927650;29;19927;-61
2023/09/09 03:18:48;;;;;;;;;;;25.90;1.00;;;;;;4941337;29;20286;-61
2023/09/09 03:21:15;;;;;;;;;;;25.90;1.00;;;;;;4926240;29;19931;-61
2023/09/09 03:23:42;;;;;;;;;;;25.90;1.00;;;;;;4921513;29;20043;-60
2023/09/09 03:26:09;;;;;;;;;;;25.90;1.00;;;;;;4925108;29;19927;-61
2023/09/09 03:28:35;;;;;;;;;;;25.90;1.00;;;;;;4926138;29;19938;-61
2023/09/09 03:31:03;;;;;;;;;;;25.90;1.00;;;;;;4926000;29;20255;-60
2023/09/09 03:33:33;;;;;;;;;;;25.90;1.00;;;;;;4926726;29;19935;-59
2023/09/09 03:35:59;;;;;;;;;;;25.90;1.00;;;;;;4951569;29;19931;-60
2023/09/09 03:38:26;;;;;;;;;;;25.90;1.00;;;;;;4922226;29;19934;-61
2023/09/09 03:40:53;;;;;;;;;;;25.90;1.00;;;;;;4924511;29;19958;-61
2023/09/09 03:43:20;;;;;;;;;;;25.80;1.00;;;;;;4920306;29;19926;-58
2023/09/09 03:45:52;;;;;;;;;;;25.80;1.00;;;;;;4923690;29;19926;-60
2023/09/09 03:48:20;;;;;;;;;;;25.80;1.00;;;;;;4946816;29;19926;-61
2023/09/09 03:50:46;;;;;;;;;;;25.80;1.00;;;;;;4948250;28;19949;-61
2023/09/09 03:53:13;;;;;;;;;;;25.80;1.00;;;;;;4927256;29;19927;-61
2023/09/09 03:55:40;;;;;;;;;;;25.80;1.00;;;;;;4921654;29;20302;-60
2023/09/09 03:58:07;;;;;;;;;;;25.80;1.00;;;;;;4930592;29;20342;-61
2023/09/09 04:00:36;;;;;;;;;;;25.80;1.00;;;;;;4921124;29;19927;-59
2023/09/09 04:03:03;;;;;;;;;;;25.80;1.00;;;;;;4940562;29;19927;-61
2023/09/09 04:05:30;;;;;;;;;;;25.80;1.00;;;;;;4933283;29;19985;-59
2023/09/09 04:07:58;;;;;;;;;;;25.80;1.00;;;;;;4928514;29;19926;-61
2023/09/09 04:10:26;;;;;;;;;;;25.80;1.00;;;;;;4950601;28;19930;-61
2023/09/09 04:12:52;;;;;;;;;;;25.80;1.00;;;;;;4921742;29;19934;-60
2023/09/09 04:15:19;;;;;;;;;;;25.80;1.00;;;;;;4941938;29;20346;-60
2023/09/09 04:17:46;;;;;;;;;;;25.70;1.00;;;;;;4942409;29;20014;-61
2023/09/09 04:20:13;;;;;;;;;;;25.70;1.00;;;;;;4943434;29;20290;-61
2023/09/09 04:22:39;;;;;;;;;;;25.70;1.00;;;;;;4924124;29;19977;-60
2023/09/09 04:25:07;;;;;;;;;;;25.70;1.00;;;;;;4952654;28;19933;-61
2023/09/09 04:27:34;;;;;;;;;;;25.70;1.00;;;;;;4933167;29;20025;-61
2023/09/09 04:30:01;;;;;;;;;;;25.70;1.00;;;;;;4939102;29;19966;-61
2023/09/09 04:32:31;;;;;;;;;;;25.70;1.00;;;;;;4941841;29;19926;-58
2023/09/09 04:34:58;;;;;;;;;;;25.70;1.00;;;;;;4926820;29;19931;-59
2023/09/09 04:37:27;;;;;;;;;;;25.70;1.00;;;;;;4936408;29;19926;-60
2023/09/09 04:39:54;;;;;;;;;;;25.70;1.00;;;;;;4952418;28;20275;-61
2023/09/09 04:42:21;;;;;;;;;;;25.70;1.00;;;;;;4944597;29;20013;-60
2023/09/09 04:44:48;;;;;;;;;;;25.70;1.00;;;;;;4943658;29;19989;-61
2023/09/09 04:47:16;;;;;;;;;;;25.70;1.00;;;;;;4943275;29;20144;-61
2023/09/09 04:49:45;;;;;;;;;;;25.70;1.00;;;;;;4924353;29;19930;-61
2023/09/09 04:52:12;;;;;;;;;;;25.70;1.00;;;;;;4952648;29;20337;-61
2023/09/09 04:54:39;;;;;;;;;;;25.70;1.00;;;;;;4925141;29;19927;-61
2023/09/09 04:57:06;;;;;;;;;;;25.60;1.00;;;;;;4919533;29;19942;-61
2023/09/09 04:59:33;;;;;;;;;;;25.60;1.00;;;;;;4918221;29;20280;-62
2023/09/09 05:02:00;;;;;;;;;;;25.60;1.00;;;;;;4941721;29;20429;-60
2023/09/09 05:04:27;;;;;;;;;;;25.60;1.00;;;;;;4935484;29;20427;-59
2023/09/09 05:06:54;;;;;;;;;;;25.60;1.00;;;;;;4951834;28;19926;-60
2023/09/09 05:09:21;;;;;;;;;;;25.60;1.00;;;;;;4951563;29;19927;-60
2023/09/09 05:11:47;;;;;;;;;;;25.60;1.00;;;;;;4925056;29;19931;-61
2023/09/09 05:14:14;;;;;;;;;;;25.60;1.00;;;;;;4944139;29;19937;-61
2023/09/09 05:16:41;;;;;;;;;;;25.60;1.00;;;;;;4924179;29;19926;-61
2023/09/09 05:19:08;;;;;;;;;;;25.50;1.00;;;;;;4932528;29;19927;-61
2023/09/09 05:21:35;;;;;;;;;;;25.50;1.00;;;;;;4945612;29;19956;-60
2023/09/09 05:24:02;;;;;;;;;;;25.40;1.00;;;;;;4958718;28;19926;-60
2023/09/09 05:26:29;;;;;;;;;;;25.40;1.00;;;;;;4938891;29;19926;-61
2023/09/09 05:28:56;;;;;;;;;;;25.40;1.00;;;;;;4942925;28;19926;-61
2023/09/09 05:31:22;;;;;;;;;;;25.30;1.00;;;;;;4938722;28;19927;-59
2023/09/09 05:33:49;;;;;;;;;;;25.30;1.00;;;;;;4956938;28;19931;-60
2023/09/09 05:36:16;;;;;;;;;;;25.30;1.00;;;;;;4939607;29;19970;-60
2023/09/09 05:38:43;;;;;;;;;;;25.20;1.00;;;;;;4948720;29;19974;-60
2023/09/09 05:41:10;;;;;;;;;;;25.20;1.00;;;;;;4958423;28;19937;-59
2023/09/09 05:43:37;;;;;;;;;;;25.20;1.00;;;;;;4939452;29;19926;-60
2023/09/09 05:46:04;;;;;;;;;;;25.20;1.00;;;;;;4956548;29;19973;-60
2023/09/09 05:48:31;;;;;;;;;;;25.10;1.00;;;;;;4957778;28;20223;-60
2023/09/09 05:50:58;;;;;;;;;;;25.10;1.00;;;;;;4942680;29;19930;-60
2023/09/09 05:53:26;;;;;;;;;;;25.10;1.00;;;;;;4939542;29;19927;-61
2023/09/09 05:55:53;;;;;;;;;;;25.10;1.00;;;;;;4956197;28;20461;-61
2023/09/09 05:58:20;;;;;;;;;;;25.10;1.00;;;;;;4935873;29;20422;-60
2023/09/09 06:00:47;;;;;;;;;;;25.00;1.00;;;;;;4956460;29;19933;-61
2023/09/09 06:03:14;;;;;;;;;;;25.00;1.00;;;;;;4939608;29;20009;-59
2023/09/09 06:05:41;;;;;;;;;;;25.00;1.00;;;;;;4939585;29;19926;-59
2023/09/09 06:08:07;;;;;;;;;;;24.90;1.00;;;;;;4940390;29;19930;-61
2023/09/09 06:10:34;;;;;;;;;;;24.90;1.00;;;;;;4946908;29;19974;-61
2023/09/09 06:13:02;;;;;;;;;;;24.90;1.00;;;;;;4953467;29;19926;-61
2023/09/09 06:15:29;;;;;;;;;;;24.90;1.00;;;;;;4946986;29;19982;-62
2023/09/09 06:18:00;;;;;;;;;;;24.90;1.00;;;;;;4939064;29;20321;-61
2023/09/09 06:20:27;;;;;;;;;;;24.90;1.00;;;;;;4938935;29;19927;-62
2023/09/09 06:22:54;;;;;;;;;;;24.90;1.00;;;;;;4939144;29;19961;-62
2023/09/09 06:25:21;;;;;;;;;;;24.90;1.00;;;;;;4938982;29;19927;-62
2023/09/09 06:27:48;;;;;;;;;;;24.90;1.00;;;;;;4938592;29;19973;-62
2023/09/09 06:30:15;;;;;;;;;;;24.90;1.00;;;;;;4956167;29;19965;-62
2023/09/09 06:32:41;;;;;;;;;;;24.90;1.00;;;;;;4938829;28;20017;-62
2023/09/09 06:35:09;;;;;;;;;;;24.90;1.00;;;;;;4938849;29;20017;-60
2023/09/09 06:37:35;;;;;;;;;;;24.90;1.00;;;;;;4955650;28;19993;-62
2023/09/09 06:40:02;;;;;;;;;;;24.90;1.00;;;;;;4955738;29;19926;-59
2023/09/09 06:42:30;;;;;;;;;;;24.90;1.00;;;;;;4955781;29;20413;-60
2023/09/09 06:45:00;;;;;;;;;;;25.00;1.00;;;;;;4938572;29;20378;-60
2023/09/09 06:47:26;;;;;;;;;;;25.00;1.00;;;;;;4955623;28;20313;-60
2023/09/09 06:49:53;;;;;;;;;;;24.90;1.00;;;;;;4955697;29;19937;-60
2023/09/09 06:52:20;;;;;;;;;;;25.00;1.00;;;;;;4938428;29;19930;-59
2023/09/09 06:54:47;;;;;;;;;;;25.00;1.00;;;;;;4938598;29;19930;-59
2023/09/09 06:57:13;;;;;;;;;;;25.00;1.00;;;;;;4955355;28;19926;-60
2023/09/09 06:59:40;;;;;;;;;;;25.00;1.00;;;;;;4955383;29;19934;-60
2023/09/09 07:02:07;;;;;;;;;;;25.00;1.00;;;;;;4955511;29;19931;-59
2023/09/09 07:04:34;;;;;;;;;;;25.00;1.00;;;;;;4955315;29;20404;-60
2023/09/09 07:07:01;;;;;;;;;;;25.00;1.00;;;;;;4955174;28;19981;-60
2023/09/09 07:09:40;;;;;;;;;;;25.00;1.00;;;;;;4955500;29;19949;-59
2023/09/09 07:12:08;;;;;;;;;;;25.00;1.00;;;;;;4955323;29;19977;-59
2023/09/09 07:14:35;;;;;;;;;;;25.00;1.00;;;;;;4955100;28;19926;-60
2023/09/09 07:17:07;;;;;;;;;;;25.00;1.00;;;;;;4954972;28;19930;-60
2023/09/09 07:19:33;;;;;;;;;;;25.00;1.00;;;;;;4955092;29;19973;-60
2023/09/09 07:22:00;;;;;;;;;;;25.00;1.00;;;;;;4955146;29;19933;-59
2023/09/09 07:24:27;;;;;;;;;;;25.00;1.00;;;;;;4955141;29;19930;-60
2023/09/09 07:26:53;;;;;;;;;;;25.00;1.00;;;;;;4954708;28;20386;-60
2023/09/09 07:29:20;;;;;;;;;;;25.00;1.00;;;;;;4955004;29;20298;-60
2023/09/09 07:31:47;;;;;;;;;;;25.00;1.00;;;;;;4954897;29;20001;-58
2023/09/09 07:34:14;;;;;;;;;;;25.00;1.00;;;;;;4955060;29;19961;-60
2023/09/09 07:36:41;;;;;;;;;;;25.00;1.00;;;;;;4954557;28;19933;-59
2023/09/09 07:39:07;;;;;;;;;;;25.00;1.00;;;;;;4954821;29;20013;-60
2023/09/09 07:41:34;;;;;;;;;;;25.00;1.00;;;;;;4954704;29;19981;-59
2023/09/09 07:44:01;;;;;;;;;;;25.00;1.00;;;;;;4954841;29;19927;-60
2023/09/09 07:46:28;;;;;;;;;;;25.00;1.00;;;;;;4953846;28;20044;-60
2023/09/09 07:48:54;;;;;;;;;;;25.00;1.00;;;;;;4954774;29;19933;-60
2023/09/09 07:51:21;;;;;;;;;;;25.10;1.00;;;;;;4954779;29;19989;-60
2023/09/09 07:53:48;;;;;;;;;;;25.00;1.00;;;;;;4954548;29;20413;-59
2023/09/09 07:56:15;;;;;;;;;;;25.10;1.00;;;;;;4953966;28;19969;-60
2023/09/09 07:58:41;;;;;;;;;;;25.10;1.00;;;;;;4954494;29;19927;-58
2023/09/09 08:01:10;;;;;;;;;;;25.10;1.00;;;;;;4954425;29;20437;-60
2023/09/09 08:03:37;;;;;;;;;;;25.10;1.00;;;;;;4954243;29;20322;-60
2023/09/09 08:06:06;;;;;;;;;;;25.10;1.00;;;;;;4954197;28;19930;-60
2023/09/09 08:08:35;;;;;;;;;;;25.10;1.00;;;;;;4954557;29;19934;-59
2023/09/09 08:11:02;;;;;;;;;;;25.10;1.00;;;;;;4954431;29;19933;-59
2023/09/09 08:13:29;;;;;;;;;;;25.10;1.00;;;;;;4954254;28;20301;-60
2023/09/09 08:15:57;;;;;;;;;;;25.10;1.00;;;;;;4953990;28;19927;-61
2023/09/09 08:18:24;;;;;;;;;;;25.10;1.00;;;;;;4954306;29;20009;-59
2023/09/09 08:20:51;;;;;;;;;;;25.10;1.00;;;;;;4954470;29;20017;-59
2023/09/09 08:23:18;;;;;;;;;;;25.10;1.00;;;;;;4954355;29;19927;-59
2023/09/09 08:25:45;;;;;;;;;;;25.10;1.00;;;;;;4953950;28;19998;-61
2023/09/09 08:28:12;;;;;;;;;;;25.10;1.00;;;;;;4954192;29;20338;-61
2023/09/09 08:30:39;;;;;;;;;;;25.10;1.00;;;;;;4954060;29;19933;-60
2023/09/09 08:33:06;;;;;;;;;;;25.10;1.00;;;;;;4954303;29;19949;-58
2023/09/09 08:35:33;;;;;;;;;;;25.10;1.00;;;;;;4954056;29;19934;-61
2023/09/09 08:38:00;;;;;;;;;;;25.20;1.00;;;;;;4953898;28;19926;-61
2023/09/09 08:40:27;;;;;;;;;;;25.20;1.00;;;;;;4953980;29;19934;-60
2023/09/09 08:43:02;;;;;;;;;;;25.20;1.00;;;;;;4954019;29;19934;-60
2023/09/09 08:45:28;;;;;;;;;;;25.20;1.00;;;;;;4953991;29;19926;-61
2023/09/09 08:47:55;;;;;;;;;;;25.20;1.00;;;;;;4946033;29;19931;-60
2023/09/09 08:50:24;;;;;;;;;;;25.20;1.00;;;;;;4953846;29;19927;-60
2023/09/09 08:52:54;;;;;;;;;;;25.20;1.00;;;;;;4953875;29;19954;-61
2023/09/09 08:55:21;;;;;;;;;;;25.20;1.00;;;;;;4954170;29;19926;-61
2023/09/09 08:57:48;;;;;;;;;;;25.20;1.00;;;;;;4955654;28;19926;-61
2023/09/09 09:00:16;;;;;;;;;;;25.20;1.00;;;;;;4942536;29;19958;-60
2023/09/09 09:02:44;;;;;;;;;;;25.30;1.00;;;;;;4956040;29;20010;-61
2023/09/09 09:05:12;;;;;;;;;;;25.30;1.00;;;;;;4957485;29;19953;-61
2023/09/09 09:07:38;;;;;;;;;;;25.30;1.00;;;;;;4957298;28;19962;-59
2023/09/09 09:10:05;;;;;;;;;;;25.30;1.00;;;;;;4957384;29;19966;-58
2023/09/09 09:12:34;;;;;;;;;;;25.30;1.00;;;;;;4957354;29;20362;-58
2023/09/09 09:15:01;;;;;;;;;;;25.30;1.00;;;;;;4957296;28;19933;-60
2023/09/09 09:17:30;;;;;;;;;;;25.30;1.00;;;;;;4957069;28;19997;-59
2023/09/09 09:19:57;;;;;;;;;;;25.30;1.00;;;;;;4957440;29;19993;-60
2023/09/09 09:22:25;;;;;;;;;;;25.30;1.00;;;;;;4957506;29;19926;-60
2023/09/09 09:24:51;;;;;;;;;;;25.30;1.00;;;;;;4957115;29;19933;-59
2023/09/09 09:27:18;;;;;;;;;;;25.30;1.00;;;;;;4956979;28;20025;-60
2023/09/09 09:29:45;;;;;;;;;;;25.40;1.00;;;;;;4957028;29;19954;-60
2023/09/09 09:32:12;;;;;;;;;;;25.40;1.00;;;;;;4957206;29;19927;-62
2023/09/09 09:34:39;;;;;;;;;;;25.40;1.00;;;;;;4957149;29;19926;-61
2023/09/09 09:37:09;;;;;;;;;;;25.40;1.00;;;;;;4956847;28;19926;-59
2023/09/09 09:39:36;;;;;;;;;;;25.40;1.00;;;;;;4956910;29;19927;-61
2023/09/09 09:42:03;;;;;;;;;;;25.40;1.00;;;;;;4957126;29;19938;-57
2023/09/09 09:44:30;;;;;;;;;;;25.40;1.00;;;;;;4957181;29;20396;-59
2023/09/09 09:46:59;;;;;;;;;;;25.40;1.00;;;;;;5255146;23;20246;-60
2023/09/09 09:49:56;;;;;;;;;;;25.40;1.00;;;;;;4976100;28;20397;-60
2023/09/09 09:52:23;;;;;;;;;;;25.40;1.00;;;;;;4968009;28;19982;-61
2023/09/09 09:54:51;;;;;;;;;;;25.40;1.00;;;;;;4976365;28;20343;-59
2023/09/09 09:57:20;;;;;;;;;;;25.40;1.00;;;;;;4963095;28;19982;-59
2023/09/09 09:59:47;;;;;;;;;;;25.40;1.00;;;;;;4956536;29;20252;-61
2023/09/09 10:02:14;;;;;;;;;;;25.40;1.00;;;;;;4957114;29;19926;-61
2023/09/09 10:04:42;;;;;;;;;;;25.40;1.00;;;;;;4939439;29;20400;-61
2023/09/09 10:07:10;;;;;;;;;;;25.40;1.00;;;;;;4956415;28;20381;-62
2023/09/09 10:09:40;;;;;;;;;;;25.50;1.00;;;;;;4956262;28;19927;-62
2023/09/09 10:12:13;;;;;;;;;;;25.40;1.00;;;;;;4956897;29;20362;-61
2023/09/09 10:14:41;;;;;;;;;;;25.40;1.00;;;;;;4956519;29;20298;-60
2023/09/09 10:17:08;;;;;;;;;;;25.40;1.00;;;;;;4956343;28;19953;-62
2023/09/09 10:19:36;;;;;;;;;;;25.40;1.00;;;;;;4956374;29;20426;-61
2023/09/09 10:22:06;;;;;;;;;;;25.40;1.00;;;;;;4956347;29;19927;-61
2023/09/09 10:24:33;;;;;;;;;;;25.40;1.00;;;;;;4956240;29;19930;-61
2023/09/09 10:27:02;;;;;;;;;;;25.40;1.00;;;;;;4956059;28;19949;-60
2023/09/09 10:29:30;;;;;;;;;;;25.50;1.00;;;;;;4956176;29;19927;-61
2023/09/09 10:32:01;;;;;;;;;;;25.50;1.00;;;;;;4956135;29;19926;-60
2023/09/09 10:34:29;;;;;;;;;;;25.50;1.00;;;;;;4956123;29;19972;-60
2023/09/09 10:36:57;;;;;;;;;;;25.50;1.00;;;;;;4955606;28;20310;-59
2023/09/09 10:39:28;;;;;;;;;;;25.50;1.00;;;;;;4955955;29;19976;-60
2023/09/09 10:41:58;;;;;;;;;;;25.50;1.00;;;;;;4955766;29;19937;-61
2023/09/09 10:44:25;;;;;;;;;;;25.50;1.00;;;;;;4955933;29;19927;-60
2023/09/09 10:46:58;;;;;;;;;;;25.50;1.00;;;;;;4955385;28;19981;-60
2023/09/09 10:49:30;;;;;;;;;;;25.50;1.00;;;;;;4955703;28;19938;-61
2023/09/09 10:51:57;;;;;;;;;;;25.50;1.00;;;;;;4955834;28;20301;-60
2023/09/09 10:54:24;;;;;;;;;;;25.50;1.00;;;;;;4955741;29;19926;-61
2023/09/09 10:56:53;;;;;;;;;;;25.50;1.00;;;;;;4955248;28;20409;-61
2023/09/09 10:59:24;;;;;;;;;;;25.50;1.00;;;;;;4955624;29;19966;-60
2023/09/09 11:02:13;;;;;;;;;;;25.50;1.00;;;;;;4955630;28;19933;-60
2023/09/09 11:04:41;;;;;;;;;;;25.50;1.00;;;;;;4955815;28;20302;-59
2023/09/09 11:07:09;;;;;;;;;;;25.50;1.00;;;;;;4954407;28;19926;-61
2023/09/09 11:09:36;;;;;;;;;;;25.50;1.00;;;;;;4955186;28;19930;-61
2023/09/09 11:12:13;;;;;;;;;;;25.50;1.00;;;;;;4955337;28;20298;-62
2023/09/09 11:14:44;;;;;;;;;;;25.50;1.00;;;;;;4955820;28;20017;-60
2023/09/09 11:17:11;;;;;;;;;;;25.50;1.00;;;;;;4955374;28;19934;-61
2023/09/09 11:19:37;;;;;;;;;;;25.50;1.00;;;;;;4954666;28;19958;-60
2023/09/09 11:22:06;;;;;;;;;;;25.50;1.00;;;;;;4955481;29;19981;-60
2023/09/09 11:24:36;;;;;;;;;;;25.50;1.00;;;;;;4955539;29;19926;-60
2023/09/09 11:27:04;;;;;;;;;;;25.50;1.00;;;;;;4954616;28;20390;-60
2023/09/09 11:29:31;;;;;;;;;;;25.50;1.00;;;;;;4954912;29;20322;-60
2023/09/09 11:32:07;;;;;;;;;;;25.50;1.00;;;;;;4954979;29;19926;-60
2023/09/09 11:34:35;;;;;;;;;;;25.50;1.00;;;;;;4955279;29;19973;-60
2023/09/09 11:37:02;;;;;;;;;;;25.50;1.00;;;;;;4954512;28;20010;-60
2023/09/09 11:39:29;;;;;;;;;;;25.50;1.00;;;;;;4954851;29;20309;-60
2023/09/09 11:41:56;;;;;;;;;;;25.50;1.00;;;;;;4954682;29;19930;-59
2023/09/09 11:44:23;;;;;;;;;;;25.50;1.00;;;;;;4954714;29;20050;-60
2023/09/09 11:46:50;;;;;;;;;;;25.50;1.00;;;;;;4954307;28;20378;-59
2023/09/09 11:49:17;;;;;;;;;;;25.50;1.00;;;;;;4954687;29;19933;-59
2023/09/09 11:51:45;;;;;;;;;;;25.50;1.00;;;;;;4954784;29;19927;-58
2023/09/09 11:54:17;;;;;;;;;;;25.50;1.00;;;;;;4954527;29;19969;-58
2023/09/09 11:56:44;;;;;;;;;;;25.50;1.00;;;;;;4954336;28;19927;-59
2023/09/09 11:59:11;;;;;;;;;;;25.50;1.00;;;;;;4954668;29;20312;-60
2023/09/09 12:01:44;;;;;;;;;;;25.50;1.00;;;;;;4954661;29;19927;-61
2023/09/09 12:04:12;;;;;;;;;;;25.50;1.00;;;;;;4954521;29;19933;-60
2023/09/09 12:06:41;;;;;;;;;;;25.50;1.00;;;;;;4954050;28;19951;-60
2023/09/09 12:09:09;;;;;;;;;;;25.50;1.00;;;;;;4954559;29;19933;-60
2023/09/09 12:11:38;;;;;;;;;;;25.50;1.00;;;;;;4954466;29;19926;-61
2023/09/09 12:14:05;;;;;;;;;;;25.50;1.00;;;;;;4954309;29;20396;-60
2023/09/09 12:16:33;;;;;;;;;;;25.50;1.00;;;;;;4954518;28;20029;-61
2023/09/09 12:18:59;;;;;;;;;;;25.50;1.00;;;;;;4954099;29;20382;-59
2023/09/09 12:21:26;;;;;;;;;;;25.50;1.00;;;;;;4954303;29;19926;-60
2023/09/09 12:23:58;;;;;;;;;;;25.50;1.00;;;;;;4954110;29;19930;-60
2023/09/09 12:26:25;;;;;;;;;;;25.50;1.00;;;;;;4953935;28;19927;-61
2023/09/09 12:29:05;;;;;;;;;;;25.50;1.00;;;;;;4954526;29;19931;-60
2023/09/09 12:31:33;;;;;;;;;;;25.50;1.00;;;;;;4954098;29;19933;-60
2023/09/09 12:34:00;;;;;;;;;;;25.50;1.00;;;;;;4953824;29;19930;-60
2023/09/09 12:36:32;;;;;;;;;;;25.50;1.00;;;;;;4953698;28;19941;-60
2023/09/09 12:38:59;;;;;;;;;;;25.50;1.00;;;;;;4953872;29;19926;-61
2023/09/09 12:41:26;;;;;;;;;;;25.60;1.00;;;;;;4954007;29;20425;-61
2023/09/09 12:43:53;;;;;;;;;;;25.50;1.00;;;;;;4953922;29;19937;-59
2023/09/09 12:46:26;;;;;;;;;;;25.50;1.00;;;;;;4953810;28;20021;-61
2023/09/09 12:48:59;;;;;;;;;;;25.50;1.00;;;;;;4954031;29;19939;-61
2023/09/09 12:51:29;;;;;;;;;;;25.50;1.00;;;;;;4954130;29;19985;-61
2023/09/09 12:53:56;;;;;;;;;;;25.50;1.00;;;;;;4953748;29;19973;-60
2023/09/09 12:56:23;;;;;;;;;;;25.50;1.00;;;;;;4953702;28;19969;-61
2023/09/09 12:58:49;;;;;;;;;;;25.50;1.00;;;;;;4968679;28;20410;-61
2023/09/09 13:01:16;;;;;;;;;;;25.50;1.00;;;;;;4953950;29;19927;-61
2023/09/09 13:03:44;;;;;;;;;;;25.50;1.00;;;;;;4953653;29;19930;-61
2023/09/09 13:06:11;;;;;;;;;;;25.50;1.00;;;;;;4953448;28;19950;-60
2023/09/09 13:08:38;;;;;;;;;;;25.50;1.00;;;;;;4953907;29;19930;-59
2023/09/09 13:11:05;;;;;;;;;;;25.50;1.00;;;;;;4953841;29;19949;-61
2023/09/09 13:13:32;;;;;;;;;;;25.50;1.00;;;;;;4953830;29;19930;-59
2023/09/09 13:15:59;;;;;;;;;;;25.50;1.00;;;;;;4953846;28;19926;-60
2023/09/09 13:18:26;;;;;;;;;;;25.50;1.00;;;;;;4953725;29;20283;-60
2023/09/09 13:20:53;;;;;;;;;;;25.50;1.00;;;;;;4953612;29;19962;-60
2023/09/09 13:23:20;;;;;;;;;;;25.50;1.00;;;;;;4953728;29;20301;-60
2023/09/09 13:25:47;;;;;;;;;;;25.50;1.00;;;;;;4953281;28;19981;-60
2023/09/09 13:28:13;;;;;;;;;;;25.50;1.00;;;;;;4953537;29;19973;-60
2023/09/09 13:30:40;;;;;;;;;;;25.50;1.00;;;;;;4953664;29;19927;-59
2023/09/09 13:33:07;;;;;;;;;;;25.50;1.00;;;;;;4953887;29;19982;-60
2023/09/09 13:35:34;;;;;;;;;;;25.50;1.00;;;;;;4953491;29;20021;-60
2023/09/09 13:38:00;;;;;;;;;;;25.50;1.00;;;;;;4953140;28;19926;-60
2023/09/09 13:40:27;;;;;;;;;;;25.50;1.00;;;;;;4953791;29;20342;-60
2023/09/09 13:42:54;;;;;;;;;;;25.50;1.00;;;;;;4936743;29;19969;-58
2023/09/09 13:45:21;;;;;;;;;;;25.50;1.00;;;;;;4949186;29;19950;-59
2023/09/09 13:47:48;;;;;;;;;;;25.50;1.00;;;;;;4956760;28;20345;-60
2023/09/09 13:50:15;;;;;;;;;;;25.50;1.00;;;;;;4956824;29;20410;-60
2023/09/09 13:52:42;;;;;;;;;;;25.60;1.00;;;;;;4956884;29;19926;-59
2023/09/09 13:55:08;;;;;;;;;;;25.50;1.00;;;;;;4956657;29;19933;-60
2023/09/09 13:57:35;;;;;;;;;;;25.50;1.00;;;;;;4939465;29;19932;-60
2023/09/09 14:00:05;;;;;;;;;;;25.60;1.00;;;;;;4956367;29;19933;-60
2023/09/09 14:02:32;;;;;;;;;;;25.50;1.00;;;;;;4956695;28;19962;-60
2023/09/09 14:04:59;;;;;;;;;;;25.50;1.00;;;;;;4956475;29;19969;-60
2023/09/09 14:07:26;;;;;;;;;;;25.50;1.00;;;;;;4956219;28;19953;-60
2023/09/09 14:09:52;;;;;;;;;;;25.60;1.00;;;;;;4956587;29;19927;-60
2023/09/09 14:12:20;;;;;;;;;;;25.60;1.00;;;;;;4956587;29;19933;-61
2023/09/09 14:14:47;;;;;;;;;;;25.60;1.00;;;;;;4956447;28;20021;-60
2023/09/09 14:17:14;;;;;;;;;;;25.60;1.00;;;;;;4956004;28;19930;-59
2023/09/09 14:19:41;;;;;;;;;;;25.60;1.00;;;;;;4956276;29;20400;-61
2023/09/09 14:22:08;;;;;;;;;;;25.60;1.00;;;;;;4956270;28;19931;-60
2023/09/09 14:24:35;;;;;;;;;;;25.60;1.00;;;;;;4956271;28;20386;-61
2023/09/09 14:27:02;;;;;;;;;;;25.60;1.00;;;;;;5073370;23;19957;-61
2023/09/09 14:29:29;;;;;;;;;;;25.60;1.00;;;;;;4982942;28;19927;-58
2023/09/09 14:31:56;;;;;;;;;;;25.60;1.00;;;;;;4975516;28;19978;-59